createdAt,value
2022-09-04T00:00:19.740Z,21.94
2022-09-04T00:02:01.074Z,22.07
2022-09-04T00:03:17.146Z,22.24
2022-09-04T00:04:54.051Z,22.02
2022-09-04T00:06:01.535Z,21.95
2022-09-04T00:07:32.147Z,22.13
2022-09-04T00:09:10.337Z,22.33
2022-09-04T00:10:40.269Z,22.25
2022-09-04T00:12:13.885Z,22.08
2022-09-04T00:13:28.533Z,22.16
2022-09-04T00:14:51.983Z,22.10
2022-09-04T00:16:20.699Z,21.78
2022-09-04T00:17:38.376Z,22.24
2022-09-04T00:18:56.942Z,22.33
2022-09-04T00:20:26.659Z,22.45
2022-09-04T00:21:47.242Z,22.38
2022-09-04T00:23:06.812Z,22.45
2022-09-04T00:24:18.277Z,22.51
2022-09-04T00:25:53.286Z,22.73
2022-09-04T00:27:01.966Z,22.90
2022-09-04T00:28:20.841Z,23.02
2022-09-04T00:29:44.501Z,22.99
2022-09-04T00:30:58.114Z,23.19
2022-09-04T00:32:30.766Z,23.30
2022-09-04T00:34:08.705Z,23.24
2022-09-04T00:35:51.287Z,23.33
2022-09-04T00:37:02.043Z,23.41
2022-09-04T00:38:31.651Z,23.39
2022-09-04T00:39:58.702Z,23.68
2022-09-04T00:41:18.589Z,23.84
2022-09-04T00:42:27.772Z,23.94
2022-09-04T00:43:38.837Z,24.09
2022-09-04T00:45:21.724Z,24.07
2022-09-04T00:47:01.006Z,24.17
2022-09-04T00:48:18.633Z,24.05
2022-09-04T00:49:47.354Z,23.74
2022-09-04T00:51:16.662Z,23.84
2022-09-04T00:52:36.571Z,23.91
2022-09-04T00:54:12.209Z,24.24
2022-09-04T00:55:43.498Z,24.28
2022-09-04T00:57:28.798Z,24.26
2022-09-04T00:58:52.852Z,24.30
2022-09-04T01:00:17.507Z,24.30
2022-09-04T01:01:27.710Z,24.48
2022-09-04T01:02:38.455Z,24.43
2022-09-04T01:04:07.675Z,24.44
2022-09-04T01:05:38.792Z,24.66
2022-09-04T01:07:11.878Z,24.78
2022-09-04T01:08:21.430Z,24.87
2022-09-04T01:09:58.790Z,24.81
2022-09-04T01:11:39.352Z,25.03
2022-09-04T01:13:48.575Z,25.06
2022-09-04T01:15:19.700Z,25.16
2022-09-04T01:17:07.450Z,25.22
2022-09-04T01:18:58.747Z,25.25
2022-09-04T01:20:13.336Z,25.54
2022-09-04T01:21:39.878Z,25.76
2022-09-04T01:23:14.344Z,26.00
2022-09-04T01:24:56.894Z,26.20
2022-09-04T01:26:26.300Z,26.26
2022-09-04T01:27:50.871Z,26.37
2022-09-04T01:29:18.796Z,26.64
2022-09-04T01:30:26.670Z,26.82
2022-09-04T01:31:43.059Z,26.69
2022-09-04T01:33:07.536Z,26.87
2022-09-04T01:34:31.835Z,27.23
2022-09-04T01:36:01.478Z,27.25
2022-09-04T01:38:03.570Z,27.49
2022-09-04T01:39:09.412Z,27.71
2022-09-04T01:40:20.986Z,27.83
2022-09-04T01:41:36.444Z,28.08
2022-09-04T01:43:01.530Z,28.14
2022-09-04T01:44:10.453Z,28.30
2022-09-04T01:45:19.933Z,28.94
2022-09-04T01:46:56.752Z,28.75
2022-09-04T01:48:03.988Z,28.87
2022-09-04T01:49:50.166Z,28.92
2022-09-04T01:50:55.792Z,29.12
2022-09-04T01:52:39.796Z,29.29
2022-09-04T01:53:45.827Z,29.66
2022-09-04T01:55:22.624Z,29.82
2022-09-04T01:56:35.380Z,29.69
2022-09-04T01:58:00.106Z,29.81
2022-09-04T01:59:32.067Z,30.10
2022-09-04T02:00:49.475Z,30.41
2022-09-04T02:02:27.737Z,30.61
2022-09-04T02:03:41.075Z,30.64
2022-09-04T02:05:23.072Z,30.92
2022-09-04T02:06:39.999Z,31.16
2022-09-04T02:08:08.130Z,31.15
2022-09-04T02:09:45.281Z,31.23
2022-09-04T02:11:05.309Z,31.53
2022-09-04T02:12:26.271Z,31.68
2022-09-04T02:14:09.639Z,31.78
2022-09-04T02:15:39.381Z,32.00
2022-09-04T02:17:22.068Z,32.16
2022-09-04T02:21:48.793Z,32.37
2022-09-04T02:23:43.632Z,32.60
2022-09-04T02:27:21.494Z,32.67
2022-09-04T02:28:47.105Z,32.85
2022-09-04T02:30:19.268Z,32.95
2022-09-04T02:31:50.886Z,33.19
2022-09-04T02:33:29.716Z,33.25
2022-09-04T02:35:22.990Z,33.25
2022-09-04T02:36:37.406Z,33.40
2022-09-04T02:38:10.873Z,33.38
2022-09-04T02:40:02.413Z,33.56
2022-09-04T02:41:17.445Z,33.45
2022-09-04T02:42:35.993Z,33.78
2022-09-04T02:44:10.464Z,33.85
2022-09-04T02:45:51.121Z,33.94
2022-09-04T02:47:30.184Z,33.95
2022-09-04T02:48:58.564Z,34.04
2022-09-04T02:50:31.206Z,33.82
2022-09-04T02:51:50.036Z,34.04
2022-09-04T02:53:23.965Z,34.14
2022-09-04T02:54:53.505Z,34.05
2022-09-04T02:56:22.794Z,34.06
2022-09-04T02:57:58.217Z,34.19
2022-09-04T02:59:30.386Z,34.16
2022-09-04T03:00:52.566Z,34.05
2022-09-04T03:02:04.880Z,34.06
2022-09-04T03:03:11.123Z,34.02
2022-09-04T03:04:30.395Z,34.02
2022-09-04T03:06:00.165Z,33.97
2022-09-04T03:07:28.793Z,34.09
2022-09-04T03:08:47.443Z,34.11
2022-09-04T03:10:19.644Z,34.20
2022-09-04T03:11:41.230Z,34.30
2022-09-04T03:12:54.875Z,34.27
2022-09-04T03:14:35.132Z,34.50
2022-09-04T03:15:52.196Z,34.43
2022-09-04T03:17:37.324Z,34.57
2022-09-04T03:19:06.475Z,34.59
2022-09-04T03:20:20.979Z,34.62
2022-09-04T03:22:12.529Z,34.75
2022-09-04T03:23:37.904Z,34.60
2022-09-04T03:25:37.353Z,34.81
2022-09-04T03:27:04.207Z,34.82
2022-09-04T03:29:02.964Z,34.79
2022-09-04T03:30:13.821Z,34.95
2022-09-04T03:31:43.376Z,35.09
2022-09-04T03:33:13.560Z,35.26
2022-09-04T03:34:32.610Z,35.18
2022-09-04T03:36:02.524Z,35.07
2022-09-04T03:37:48.847Z,35.00
2022-09-04T03:39:05.576Z,35.04
2022-09-04T03:40:41.326Z,35.16
2022-09-04T03:41:56.560Z,35.34
2022-09-04T03:43:43.485Z,35.17
2022-09-04T03:45:27.116Z,35.38
2022-09-04T03:47:16.496Z,35.49
2022-09-04T03:48:53.285Z,35.34
2022-09-04T03:50:13.477Z,35.21
2022-09-04T03:51:30.253Z,35.28
2022-09-04T03:53:07.023Z,35.20
2022-09-04T03:54:49.633Z,35.31
2022-09-04T03:59:07.453Z,35.39
2022-09-04T04:01:19.532Z,35.21
2022-09-04T04:07:40.329Z,34.96
2022-09-04T04:08:59.020Z,34.98
2022-09-04T04:10:10.326Z,35.32
2022-09-04T04:11:46.010Z,35.06
2022-09-04T04:13:11.777Z,35.11
2022-09-04T04:14:52.566Z,35.30
2022-09-04T04:16:24.775Z,35.17
2022-09-04T04:17:45.839Z,35.16
2022-09-04T04:19:19.579Z,35.09
2022-09-04T04:20:31.929Z,35.04
2022-09-04T04:22:29.996Z,35.04
2022-09-04T04:23:59.465Z,35.00
2022-09-04T04:25:15.296Z,35.02
2022-09-04T04:27:05.104Z,35.10
2022-09-04T04:29:01.629Z,35.09
2022-09-04T04:30:18.206Z,34.90
2022-09-04T04:31:39.984Z,34.88
2022-09-04T04:33:22.091Z,34.91
2022-09-04T04:34:38.224Z,34.82
2022-09-04T04:38:20.367Z,34.71
2022-09-04T04:39:36.947Z,34.85
2022-09-04T04:41:06.117Z,34.75
2022-09-04T04:42:49.954Z,34.73
2022-09-04T04:44:16.754Z,34.70
2022-09-04T04:45:52.747Z,34.59
2022-09-04T04:47:40.064Z,34.76
2022-09-04T04:49:06.683Z,34.61
2022-09-04T04:50:51.731Z,34.50
2022-09-04T04:52:58.165Z,34.53
2022-09-04T04:54:26.428Z,34.53
2022-09-04T04:55:51.762Z,34.47
2022-09-04T04:57:18.563Z,34.51
2022-09-04T04:58:53.617Z,34.55
2022-09-04T05:00:27.288Z,34.48
2022-09-04T05:01:59.604Z,34.49
2022-09-04T05:03:47.483Z,34.58
2022-09-04T05:05:04.673Z,35.13
2022-09-04T05:07:02.539Z,35.57
2022-09-04T05:08:46.873Z,36.20
2022-09-04T05:10:29.172Z,36.38
2022-09-04T05:11:56.243Z,36.55
2022-09-04T05:13:28.870Z,36.57
2022-09-04T05:14:57.841Z,36.69
2022-09-04T05:16:44.484Z,36.60
2022-09-04T05:18:17.372Z,36.61
2022-09-04T05:19:38.405Z,36.43
2022-09-04T05:20:45.339Z,36.64
2022-09-04T05:22:01.030Z,36.94
2022-09-04T05:23:20.528Z,36.92
2022-09-04T05:25:04.183Z,37.13
2022-09-04T05:26:24.382Z,37.16
2022-09-04T05:28:06.874Z,37.30
2022-09-04T05:29:41.778Z,37.22
2022-09-04T05:31:00.469Z,37.31
2022-09-04T05:32:25.935Z,37.57
2022-09-04T05:34:19.662Z,37.66
2022-09-04T05:35:46.614Z,37.58
2022-09-04T05:37:01.539Z,37.62
2022-09-04T05:38:31.372Z,37.64
2022-09-04T05:39:55.619Z,37.56
2022-09-04T05:41:44.430Z,37.39
2022-09-04T05:43:16.369Z,38.08
2022-09-04T05:44:33.247Z,38.01
2022-09-04T05:46:08.808Z,38.03
2022-09-04T05:47:30.691Z,38.61
2022-09-04T05:48:46.768Z,39.06
2022-09-04T05:50:11.214Z,39.00
2022-09-04T05:51:30.496Z,39.04
2022-09-04T05:53:19.699Z,39.23
2022-09-04T05:54:56.733Z,39.42
2022-09-04T05:56:13.669Z,39.46
2022-09-04T05:57:26.472Z,39.57
2022-09-04T05:58:57.886Z,39.55
2022-09-04T06:00:19.507Z,39.37
2022-09-04T06:01:53.663Z,39.34
2022-09-04T06:03:30.844Z,39.20
2022-09-04T06:04:51.042Z,39.61
2022-09-04T06:06:08.498Z,39.72
2022-09-04T06:07:22.428Z,39.99
2022-09-04T06:08:42.642Z,40.35
2022-09-04T06:10:14.006Z,40.28
2022-09-04T06:11:26.160Z,40.11
2022-09-04T06:12:47.229Z,40.19
2022-09-04T06:13:56.035Z,40.24
2022-09-04T06:15:26.503Z,40.09
2022-09-04T06:16:46.536Z,40.02
2022-09-04T06:17:58.414Z,39.94
2022-09-04T06:19:17.431Z,39.98
2022-09-04T06:20:42.878Z,39.80
2022-09-04T06:22:26.933Z,39.76
2022-09-04T06:23:52.180Z,39.99
2022-09-04T06:25:41.280Z,40.46
2022-09-04T06:27:10.459Z,40.63
2022-09-04T06:29:09.767Z,40.58
2022-09-04T06:30:16.737Z,40.23
2022-09-04T06:31:28.363Z,40.03
2022-09-04T06:33:10.926Z,39.90
2022-09-04T06:34:39.091Z,39.98
2022-09-04T06:36:12.560Z,40.07
2022-09-04T06:37:29.542Z,40.06
2022-09-04T06:38:50.198Z,40.22
2022-09-04T06:40:10.045Z,40.27
2022-09-04T06:41:24.300Z,40.33
2022-09-04T06:42:44.166Z,40.32
2022-09-04T06:44:17.556Z,40.28
2022-09-04T06:45:48.215Z,40.39
2022-09-04T06:47:14.308Z,40.37
2022-09-04T06:49:06.333Z,40.31
2022-09-04T06:50:38.120Z,40.20
2022-09-04T06:51:54.760Z,40.18
2022-09-04T06:53:16.716Z,40.28
2022-09-04T06:54:42.314Z,40.40
2022-09-04T06:56:24.504Z,40.49
2022-09-04T06:57:47.465Z,40.63
2022-09-04T06:59:47.676Z,40.74
2022-09-04T07:01:09.854Z,40.69
2022-09-04T07:02:27.076Z,40.78
2022-09-04T07:03:41.163Z,41.00
2022-09-04T07:05:11.515Z,41.11
2022-09-04T07:06:50.071Z,41.25
2022-09-04T07:08:33.805Z,41.37
2022-09-04T07:10:08.410Z,41.43
2022-09-04T07:11:36.707Z,41.39
2022-09-04T07:13:08.338Z,41.59
2022-09-04T07:14:17.912Z,41.73
2022-09-04T07:15:47.418Z,41.81
2022-09-04T07:17:15.072Z,41.80
2022-09-04T07:18:59.714Z,42.17
2022-09-04T07:20:09.556Z,42.71
2022-09-04T07:21:37.067Z,42.78
2022-09-04T07:23:21.776Z,42.73
2022-09-04T07:25:05.669Z,42.70
2022-09-04T07:26:31.830Z,43.12
2022-09-04T07:27:54.217Z,43.32
2022-09-04T07:29:25.981Z,43.58
2022-09-04T07:30:34.442Z,43.39
2022-09-04T07:32:12.782Z,43.41
2022-09-04T07:33:56.916Z,43.56
2022-09-04T07:35:05.529Z,43.66
2022-09-04T07:36:37.991Z,43.65
2022-09-04T07:38:28.349Z,43.58
2022-09-04T07:40:10.754Z,43.38
2022-09-04T07:42:06.397Z,43.42
2022-09-04T07:43:22.482Z,43.70
2022-09-04T07:44:49.941Z,43.75
2022-09-04T07:46:16.840Z,43.73
2022-09-04T07:47:39.113Z,43.76
2022-09-04T07:48:59.657Z,43.88
2022-09-04T07:50:23.698Z,43.82
2022-09-04T07:51:33.921Z,43.71
2022-09-04T07:52:51.115Z,43.71
2022-09-04T07:54:36.794Z,44.02
2022-09-04T07:55:49.571Z,44.12
2022-09-04T07:57:14.939Z,44.22
2022-09-04T07:58:59.619Z,44.59
2022-09-04T08:01:00.794Z,45.16
2022-09-04T08:02:16.057Z,45.54
2022-09-04T08:03:37.927Z,45.52
2022-09-04T08:05:16.485Z,45.58
2022-09-04T08:06:29.246Z,45.47
2022-09-04T08:07:35.087Z,45.47
2022-09-04T08:09:16.364Z,45.31
2022-09-04T08:10:43.302Z,44.98
2022-09-04T08:12:13.575Z,44.89
2022-09-04T08:14:11.243Z,44.75
2022-09-04T08:15:22.352Z,44.81
2022-09-04T08:17:08.907Z,44.91
2022-09-04T08:18:38.558Z,44.85
2022-09-04T08:19:54.735Z,44.78
2022-09-04T08:21:29.849Z,44.89
2022-09-04T08:23:01.872Z,44.89
2022-09-04T08:24:07.884Z,45.61
2022-09-04T08:25:30.455Z,46.08
2022-09-04T08:26:36.420Z,46.22
2022-09-04T08:27:44.218Z,46.22
2022-09-04T08:29:32.685Z,46.22
2022-09-04T08:30:55.682Z,46.35
2022-09-04T08:32:17.160Z,46.41
2022-09-04T08:33:29.877Z,46.33
2022-09-04T08:35:05.479Z,46.21
2022-09-04T08:36:49.942Z,46.08
2022-09-04T08:38:35.598Z,45.97
2022-09-04T08:40:18.096Z,46.04
2022-09-04T08:42:01.163Z,45.90
2022-09-04T08:43:48.004Z,45.76
2022-09-04T08:45:42.457Z,45.63
2022-09-04T08:47:04.345Z,45.63
2022-09-04T08:48:44.030Z,45.83
2022-09-04T08:50:31.335Z,45.72
2022-09-04T08:52:17.851Z,45.64
2022-09-04T08:53:45.076Z,45.57
2022-09-04T08:55:20.141Z,45.55
2022-09-04T08:56:32.359Z,45.53
2022-09-04T08:57:59.850Z,45.51
2022-09-04T08:59:27.355Z,45.62
2022-09-04T09:00:58.343Z,45.49
2022-09-04T09:02:58.027Z,45.51
2022-09-04T09:04:15.256Z,45.45
2022-09-04T09:05:57.666Z,45.26
2022-09-04T09:07:34.747Z,44.99
2022-09-04T09:09:23.806Z,44.81
2022-09-04T09:11:15.939Z,44.58
2022-09-04T09:12:52.987Z,44.40
2022-09-04T09:14:22.815Z,44.36
2022-09-04T09:15:35.906Z,44.05
2022-09-04T09:16:45.091Z,43.94
2022-09-04T09:18:40.554Z,44.01
2022-09-04T09:20:00.435Z,43.95
2022-09-04T09:21:24.601Z,43.89
2022-09-04T09:23:09.266Z,43.78
2022-09-04T09:24:55.142Z,43.75
2022-09-04T09:26:30.107Z,43.64
2022-09-04T09:28:06.703Z,43.71
2022-09-04T09:29:35.012Z,44.21
2022-09-04T09:31:18.807Z,44.45
2022-09-04T09:32:52.063Z,44.39
2022-09-04T09:34:35.038Z,44.49
2022-09-04T09:36:08.056Z,44.63
2022-09-04T09:38:08.062Z,44.66
2022-09-04T09:39:44.425Z,44.58
2022-09-04T09:41:07.398Z,44.56
2022-09-04T09:42:33.095Z,44.59
2022-09-04T09:44:08.228Z,44.61
2022-09-04T09:45:51.788Z,44.81
2022-09-04T09:47:20.657Z,44.85
2022-09-04T09:48:57.266Z,45.17
2022-09-04T09:50:27.986Z,45.32
2022-09-04T09:52:01.637Z,45.19
2022-09-04T09:53:47.076Z,45.01
2022-09-04T09:55:08.884Z,45.11
2022-09-04T09:57:03.159Z,45.15
2022-09-04T09:58:55.621Z,45.16
2022-09-04T10:00:25.514Z,45.18
2022-09-04T10:01:52.793Z,45.32
2022-09-04T10:03:38.423Z,45.63
2022-09-04T10:05:24.030Z,45.56
2022-09-04T10:06:54.721Z,45.49
2022-09-04T10:08:54.338Z,45.89
2022-09-04T10:10:26.684Z,46.08
2022-09-04T10:11:53.780Z,45.90
2022-09-04T10:13:11.100Z,45.86
2022-09-04T10:14:44.640Z,45.92
2022-09-04T10:16:30.492Z,46.01
2022-09-04T10:18:24.179Z,46.40
2022-09-04T10:19:51.559Z,46.39
2022-09-04T10:21:13.839Z,46.36
2022-09-04T10:22:46.631Z,46.23
2022-09-04T10:24:17.450Z,46.26
2022-09-04T10:25:44.613Z,46.33
2022-09-04T10:26:53.554Z,46.40
2022-09-04T10:28:17.186Z,46.71
2022-09-04T10:30:01.703Z,46.84
2022-09-04T10:31:30.643Z,46.75
2022-09-04T10:33:12.939Z,46.68
2022-09-04T10:34:28.268Z,46.55
2022-09-04T10:36:11.972Z,47.39
2022-09-04T10:37:36.427Z,48.27
2022-09-04T10:39:27.372Z,48.57
2022-09-04T10:41:02.261Z,48.78
2022-09-04T10:42:27.904Z,48.43
2022-09-04T10:43:55.414Z,48.22
2022-09-04T10:45:09.716Z,48.10
2022-09-04T10:46:37.923Z,48.33
2022-09-04T10:48:14.118Z,48.44
2022-09-04T10:49:50.992Z,48.38
2022-09-04T10:51:26.366Z,48.54
2022-09-04T10:53:11.325Z,49.23
2022-09-04T10:54:45.839Z,49.29
2022-09-04T10:56:08.485Z,49.06
2022-09-04T10:57:46.410Z,48.84
2022-09-04T10:59:11.303Z,48.67
2022-09-04T11:00:36.145Z,48.46
2022-09-04T11:02:18.539Z,48.16
2022-09-04T11:03:45.191Z,48.02
2022-09-04T11:05:33.138Z,47.85
2022-09-04T11:06:40.499Z,47.46
2022-09-04T11:08:14.232Z,47.33
2022-09-04T11:09:51.232Z,47.18
2022-09-04T11:11:32.760Z,47.02
2022-09-04T11:13:04.404Z,46.75
2022-09-04T11:14:55.235Z,46.58
2022-09-04T11:16:04.818Z,46.46
2022-09-04T11:17:53.688Z,46.28
2022-09-04T11:19:30.656Z,46.16
2022-09-04T11:21:03.843Z,45.96
2022-09-04T11:22:40.571Z,46.09
2022-09-04T11:24:23.317Z,46.54
2022-09-04T11:26:06.984Z,46.75
2022-09-04T11:27:32.561Z,46.67
2022-09-04T11:29:16.907Z,46.50
2022-09-04T11:30:49.578Z,46.66
2022-09-04T11:32:36.083Z,46.67
2022-09-04T11:34:08.227Z,46.67
2022-09-04T11:35:31.269Z,46.56
2022-09-04T11:36:58.916Z,46.59
2022-09-04T11:38:10.597Z,46.80
2022-09-04T11:39:35.126Z,46.69
2022-09-04T11:41:01.799Z,46.53
2022-09-04T11:42:21.622Z,46.46
2022-09-04T11:43:48.931Z,46.42
2022-09-04T11:45:18.485Z,46.43
2022-09-04T11:46:30.663Z,46.42
2022-09-04T11:47:56.671Z,46.51
2022-09-04T11:49:18.851Z,46.73
2022-09-04T11:50:43.064Z,46.86
2022-09-04T11:52:03.068Z,46.65
2022-09-04T11:54:03.713Z,46.79
2022-09-04T11:55:15.280Z,46.88
2022-09-04T11:56:40.238Z,46.76
2022-09-04T11:58:20.095Z,46.72
2022-09-04T12:00:03.330Z,46.75
2022-09-04T12:01:32.955Z,46.86
2022-09-04T12:02:43.271Z,46.79
2022-09-04T12:04:07.842Z,46.85
2022-09-04T12:05:48.344Z,46.72
2022-09-04T12:07:14.320Z,46.65
2022-09-04T12:08:26.185Z,47.62
2022-09-04T12:09:44.993Z,48.36
2022-09-04T12:11:20.226Z,48.36
2022-09-04T12:12:53.459Z,48.34
2022-09-04T12:14:16.194Z,48.75
2022-09-04T12:15:46.551Z,48.74
2022-09-04T12:17:28.620Z,48.82
2022-09-04T12:19:14.632Z,49.07
2022-09-04T12:20:33.210Z,49.00
2022-09-04T12:22:20.034Z,48.86
2022-09-04T12:23:33.325Z,49.21
2022-09-04T12:25:01.584Z,49.42
2022-09-04T12:26:25.648Z,49.17
2022-09-04T12:27:43.528Z,49.06
2022-09-04T12:29:27.797Z,49.05
2022-09-04T12:31:19.217Z,49.28
2022-09-04T12:32:52.175Z,49.46
2022-09-04T12:34:37.928Z,49.20
2022-09-04T12:36:19.118Z,49.06
2022-09-04T12:37:54.661Z,49.28
2022-09-04T12:39:37.338Z,49.45
2022-09-04T12:41:03.098Z,49.37
2022-09-04T12:42:33.294Z,49.28
2022-09-04T12:44:24.712Z,49.49
2022-09-04T12:45:33.292Z,49.30
2022-09-04T12:47:16.939Z,49.44
2022-09-04T12:49:13.113Z,49.50
2022-09-04T12:50:28.625Z,49.79
2022-09-04T12:51:50.051Z,49.69
2022-09-04T12:53:05.645Z,49.93
2022-09-04T12:55:05.122Z,50.60
2022-09-04T12:56:27.249Z,50.69
2022-09-04T12:57:56.705Z,50.67
2022-09-04T12:59:30.282Z,50.92
2022-09-04T13:00:51.995Z,51.06
2022-09-04T13:02:07.107Z,50.90
2022-09-04T13:03:35.161Z,51.14
2022-09-04T13:05:19.295Z,51.20
2022-09-04T13:06:38.849Z,51.18
2022-09-04T13:08:06.018Z,51.22
2022-09-04T13:09:25.184Z,51.20
2022-09-04T13:10:50.583Z,51.06
2022-09-04T13:12:44.518Z,51.22
2022-09-04T13:14:22.253Z,51.51
2022-09-04T13:16:10.258Z,51.69
2022-09-04T13:17:45.557Z,52.07
2022-09-04T13:19:19.526Z,52.24
2022-09-04T13:20:57.520Z,52.23
2022-09-04T13:22:25.833Z,52.40
2022-09-04T13:23:58.989Z,52.75
2022-09-04T13:25:39.121Z,52.79
2022-09-04T13:27:11.649Z,52.89
2022-09-04T13:28:46.108Z,52.62
2022-09-04T13:30:03.044Z,52.59
2022-09-04T13:31:20.721Z,52.71
2022-09-04T13:32:57.198Z,52.59
2022-09-04T13:34:14.611Z,52.42
2022-09-04T13:35:52.237Z,52.78
2022-09-04T13:37:49.762Z,53.24
2022-09-04T13:39:29.403Z,53.54
2022-09-04T13:41:12.356Z,53.59
2022-09-04T13:42:55.141Z,53.59
2022-09-04T13:44:10.243Z,53.66
2022-09-04T13:45:50.582Z,53.64
2022-09-04T13:47:11.782Z,53.69
2022-09-04T13:49:09.873Z,53.54
2022-09-04T13:51:07.275Z,53.40
2022-09-04T13:52:32.554Z,53.31
2022-09-04T13:54:00.937Z,52.97
2022-09-04T13:55:40.764Z,52.58
2022-09-04T13:56:52.240Z,52.42
2022-09-04T13:58:20.708Z,52.55
2022-09-04T13:59:26.350Z,52.34
2022-09-04T14:00:33.302Z,52.02
2022-09-04T14:01:49.546Z,51.75
2022-09-04T14:03:00.411Z,51.28
2022-09-04T14:04:14.961Z,50.73
2022-09-04T14:05:23.897Z,50.38
2022-09-04T14:06:31.689Z,49.81
2022-09-04T14:07:44.653Z,49.10
2022-09-04T14:09:04.399Z,48.75
2022-09-04T14:10:23.415Z,48.36
2022-09-04T14:11:45.281Z,47.66
2022-09-04T14:12:56.966Z,47.13
2022-09-04T14:14:28.007Z,46.62
2022-09-04T14:16:10.922Z,45.96
2022-09-04T14:17:27.631Z,45.40
2022-09-04T14:18:48.695Z,44.91
2022-09-04T14:20:12.823Z,44.44
2022-09-04T14:21:42.512Z,43.95
2022-09-04T14:23:12.138Z,43.28
2022-09-04T14:24:35.178Z,42.95
2022-09-04T14:26:06.199Z,42.86
2022-09-04T14:27:49.694Z,42.48
2022-09-04T14:29:05.872Z,41.72
2022-09-04T14:30:30.145Z,41.41
2022-09-04T14:32:11.936Z,40.97
2022-09-04T14:33:47.823Z,40.61
2022-09-04T14:35:19.146Z,40.20
2022-09-04T14:36:37.390Z,39.37
2022-09-04T14:37:52.002Z,39.00
2022-09-04T14:39:34.144Z,38.64
2022-09-04T14:40:50.496Z,38.27
2022-09-04T14:42:02.938Z,37.89
2022-09-04T14:43:34.347Z,37.76
2022-09-04T14:44:47.626Z,37.09
2022-09-04T14:46:14.771Z,36.54
2022-09-04T14:47:48.523Z,36.53
2022-09-04T14:49:09.667Z,36.58
2022-09-04T14:50:19.858Z,36.39
2022-09-04T14:51:27.169Z,36.20
2022-09-04T14:52:37.929Z,35.70
2022-09-04T14:53:53.039Z,35.32
2022-09-04T14:55:00.060Z,35.00
2022-09-04T14:56:14.616Z,34.75
2022-09-04T14:57:41.412Z,34.69
2022-09-04T14:59:19.491Z,34.04
2022-09-04T15:00:26.112Z,33.85
2022-09-04T15:01:33.901Z,33.47
2022-09-04T15:03:22.309Z,33.20
2022-09-04T15:04:54.475Z,33.47
2022-09-04T15:06:07.033Z,33.64
2022-09-04T15:07:50.351Z,33.62
2022-09-04T15:08:59.906Z,33.90
2022-09-04T15:10:28.334Z,34.04
2022-09-04T15:11:35.426Z,34.04
2022-09-04T15:12:57.296Z,34.14
2022-09-04T15:14:34.257Z,34.39
2022-09-04T15:15:52.001Z,34.27
2022-09-04T15:17:04.690Z,34.05
2022-09-04T15:18:31.200Z,33.23
2022-09-04T15:19:47.755Z,33.29
2022-09-04T15:21:19.392Z,33.06
2022-09-04T15:22:40.582Z,33.14
2022-09-04T15:24:15.406Z,32.64
2022-09-04T15:25:58.218Z,32.07
2022-09-04T15:27:31.893Z,31.56
2022-09-04T15:28:47.651Z,31.16
2022-09-04T15:30:11.534Z,30.65
2022-09-04T15:31:35.743Z,30.10
2022-09-04T15:32:44.210Z,29.74
2022-09-04T15:33:51.635Z,29.50
2022-09-04T15:35:24.629Z,29.32
2022-09-04T15:36:32.790Z,28.77
2022-09-04T15:37:39.544Z,28.32
2022-09-04T15:38:58.126Z,28.26
2022-09-04T15:40:28.435Z,27.90
2022-09-04T15:41:50.594Z,27.91
2022-09-04T15:43:16.541Z,27.62
2022-09-04T15:44:45.739Z,27.46
2022-09-04T15:45:54.625Z,27.64
2022-09-04T15:48:01.065Z,28.01
2022-09-04T15:49:29.688Z,27.28
2022-09-04T15:50:41.758Z,27.13
2022-09-04T15:51:53.846Z,27.01
2022-09-04T15:53:29.003Z,26.57
2022-09-04T15:54:48.564Z,26.65
2022-09-04T15:56:24.727Z,26.48
2022-09-04T15:58:00.984Z,26.39
2022-09-04T15:59:41.775Z,26.14
2022-09-04T16:01:09.431Z,26.02
2022-09-04T16:02:55.210Z,25.88
2022-09-04T16:04:33.641Z,25.76
2022-09-04T16:06:04.772Z,25.92
2022-09-04T16:07:35.054Z,26.23
2022-09-04T16:08:49.915Z,26.39
2022-09-04T16:10:26.874Z,25.93
2022-09-04T16:11:46.578Z,26.01
2022-09-04T16:13:07.689Z,25.80
2022-09-04T16:14:26.238Z,25.84
2022-09-04T16:15:36.062Z,26.18
2022-09-04T16:16:55.641Z,26.12
2022-09-04T16:18:04.760Z,26.13
2022-09-04T16:19:48.378Z,25.94
2022-09-04T16:21:04.874Z,25.06
2022-09-04T16:22:18.744Z,24.41
2022-09-04T16:23:34.069Z,24.39
2022-09-04T16:24:45.778Z,24.20
2022-09-04T16:25:55.215Z,24.13
2022-09-04T16:27:02.947Z,24.33
2022-09-04T16:28:16.374Z,24.53
2022-09-04T16:29:30.955Z,24.28
2022-09-04T16:30:38.904Z,24.32
2022-09-04T16:31:52.125Z,24.86
2022-09-04T16:32:59.545Z,24.98
2022-09-04T16:34:29.794Z,25.38
2022-09-04T16:35:42.415Z,25.70
2022-09-04T16:37:03.029Z,25.74
2022-09-04T16:38:23.546Z,25.90
2022-09-04T16:39:47.816Z,26.33
2022-09-04T16:40:57.554Z,26.81
2022-09-04T16:42:16.473Z,26.83
2022-09-04T16:43:29.761Z,27.05
2022-09-04T16:44:39.963Z,27.25
2022-09-04T16:46:31.269Z,26.92
2022-09-04T16:48:34.800Z,27.44
2022-09-04T16:50:04.126Z,28.32
2022-09-04T16:51:40.131Z,28.68
2022-09-04T16:53:15.201Z,28.94
2022-09-04T16:54:54.629Z,29.18
2022-09-04T16:56:05.004Z,29.34
2022-09-04T16:57:23.016Z,29.65
2022-09-04T16:58:53.777Z,29.27
2022-09-04T17:00:13.496Z,29.55
2022-09-04T17:01:36.823Z,29.58
2022-09-04T17:02:49.887Z,29.53
2022-09-04T17:04:14.404Z,29.30
2022-09-04T17:05:36.867Z,29.19
2022-09-04T17:06:54.653Z,29.27
2022-09-04T17:08:29.018Z,29.40
2022-09-04T17:09:44.580Z,29.21
2022-09-04T17:10:55.247Z,29.12
2022-09-04T17:12:08.895Z,28.94
2022-09-04T17:13:44.629Z,28.85
2022-09-04T17:15:13.567Z,28.44
2022-09-04T17:16:25.343Z,28.14
2022-09-04T17:17:32.378Z,28.58
2022-09-04T17:18:43.907Z,28.73
2022-09-04T17:20:30.928Z,28.50
2022-09-04T17:29:02.865Z,27.51
2022-09-04T17:29:03.859Z,28.44
2022-09-04T17:29:11.928Z,26.99
2022-09-04T17:29:16.212Z,26.64
2022-09-04T17:31:20.651Z,25.86
2022-09-04T17:36:29.692Z,25.41
2022-09-04T17:40:36.549Z,24.50
2022-09-04T17:40:40.548Z,23.78
2022-09-04T17:40:41.553Z,25.09
2022-09-04T17:40:54.117Z,23.65
2022-09-04T17:41:37.996Z,23.73
2022-09-04T17:43:22.198Z,23.61
2022-09-04T17:44:36.835Z,23.08
2022-09-04T17:45:52.014Z,22.73
2022-09-04T17:47:12.517Z,22.92
2022-09-04T17:48:38.108Z,23.10
2022-09-04T17:49:50.499Z,22.85
2022-09-04T17:51:02.975Z,22.66
2022-09-04T17:52:12.851Z,22.69
2022-09-04T17:53:33.702Z,22.73
2022-09-04T17:54:48.846Z,22.48
2022-09-04T17:56:07.211Z,22.29
2022-09-04T17:57:29.402Z,22.19
2022-09-04T17:58:38.337Z,22.41
2022-09-04T18:00:13.873Z,22.28
2022-09-04T18:01:26.652Z,22.33
2022-09-04T18:02:51.803Z,22.22
2022-09-04T18:04:35.606Z,22.35
2022-09-04T18:05:53.213Z,22.17
2022-09-04T18:07:28.753Z,21.87
2022-09-04T18:08:34.285Z,22.13
2022-09-04T18:10:26.095Z,22.27
2022-09-04T18:11:41.383Z,22.23
2022-09-04T18:13:06.774Z,22.16
2022-09-04T18:14:35.108Z,22.39
2022-09-04T18:15:53.292Z,22.25
2022-09-04T18:17:11.495Z,21.80
2022-09-04T18:18:43.252Z,21.39
2022-09-04T18:19:57.842Z,21.26
2022-09-04T18:21:35.220Z,21.18
2022-09-04T18:23:31.503Z,21.15
2022-09-04T18:24:49.438Z,21.21
2022-09-04T18:26:10.840Z,21.10
2022-09-04T18:27:46.525Z,20.97
2022-09-04T18:30:06.613Z,21.05
2022-09-04T18:37:06.172Z,20.59
2022-09-04T18:37:18.795Z,20.25
2022-09-04T18:37:20.411Z,20.14
2022-09-04T18:37:24.551Z,20.35
2022-09-04T18:37:45.051Z,20.10
2022-09-04T18:39:13.774Z,20.30
2022-09-04T18:41:43.331Z,20.13
2022-09-04T18:49:07.168Z,20.37
2022-09-04T18:50:21.407Z,20.47
2022-09-04T18:50:39.643Z,20.52
2022-09-04T18:50:46.368Z,20.61
2022-09-04T18:50:53.074Z,20.64
2022-09-04T18:52:20.126Z,20.66
2022-09-04T18:53:30.271Z,20.97
2022-09-04T18:54:40.029Z,21.17
2022-09-04T18:55:50.797Z,21.23
2022-09-04T18:57:06.430Z,21.25
2022-09-04T18:58:46.802Z,21.27
2022-09-04T19:00:08.126Z,21.05
2022-09-04T19:02:02.539Z,21.04
2022-09-04T19:03:27.182Z,21.38
2022-09-04T19:04:52.957Z,21.58
2022-09-04T19:06:01.291Z,21.65
2022-09-04T19:07:36.697Z,21.63
2022-09-04T19:08:50.887Z,21.69
2022-09-04T19:10:21.507Z,21.67
2022-09-04T19:11:32.545Z,21.31
2022-09-04T19:12:48.929Z,21.28
2022-09-04T19:14:20.609Z,21.19
2022-09-04T19:16:11.418Z,20.93
2022-09-04T19:17:23.055Z,20.90
2022-09-04T19:19:17.487Z,20.97
2022-09-04T19:20:31.289Z,20.78
2022-09-04T19:22:14.421Z,20.11